Wetterdaten: Woche 09.08.10 - 15.08.10 (KW32)
Datum Zeit Temp. A. Feuchte A. Luftdruck Regen Wind Richtung Taupunkt Windchill Windben
09.08.2010 00:00 18,3 C 79 % 1016,2 hPa 0,0 l/m 0,3 km/h N 14,5 C 18,3 C 4,8 km/h
09.08.2010 01:00 18,3 C 79 % 1016,2 hPa 0,0 l/m 0,3 km/h N 14,6 C 18,3 C 3,6 km/h
09.08.2010 02:00 18,1 C 80 % 1016,1 hPa 0,0 l/m 0,5 km/h S-SW 14,5 C 18,1 C 4,0 km/h
09.08.2010 03:00 18,5 C 77 % 1015,8 hPa 0,0 l/m 1,0 km/h SW 14,4 C 18,5 C 6,4 km/h
09.08.2010 04:00 19,1 C 73 % 1016,1 hPa 0,0 l/m 0,9 km/h SW 14,2 C 19,1 C 5,2 km/h
09.08.2010 05:00 19,0 C 72 % 1016,4 hPa 0,0 l/m 1,2 km/h NO 13,9 C 19,0 C 8,9 km/h
09.08.2010 06:00 18,7 C 73 % 1016,7 hPa 0,0 l/m 3,0 km/h O 13,6 C 18,7 C 15,7 km/h
09.08.2010 07:00 18,3 C 75 % 1017,7 hPa 1,0 l/m 2,3 km/h SW 13,8 C 18,3 C 11,3 km/h
09.08.2010 08:00 17,5 C 81 % 1018,0 hPa 0,8 l/m 0,9 km/h SW 14,2 C 17,5 C 4,8 km/h
09.08.2010 09:00 16,8 C 85 % 1018,0 hPa 0,3 l/m 0,0 km/h N 14,2 C 16,8 C 4,8 km/h
09.08.2010 10:00 17,8 C 87 % 1017,8 hPa 0,3 l/m 0,1 km/h N 15,5 C 17,8 C 0,8 km/h
09.08.2010 11:00 20,3 C 78 % 1017,7 hPa 0,3 l/m 0,9 km/h N-NO 16,3 C 20,3 C 5,6 km/h
09.08.2010 12:00 22,9 C 59 % 1017,3 hPa 0,0 l/m 4,4 km/h S-SW 14,3 C 22,9 C 14,5 km/h
09.08.2010 13:00 25,5 C 51 % 1016,5 hPa 0,0 l/m 3,0 km/h S-SO 14,6 C 25,5 C 11,3 km/h
09.08.2010 14:00 26,4 C 50 % 1016,1 hPa 0,0 l/m 2,3 km/h SW 15,1 C 26,4 C 11,3 km/h
09.08.2010 15:00 27,4 C 45 % 1015,7 hPa 0,0 l/m 3,2 km/h S 14,2 C 27,4 C 11,3 km/h
09.08.2010 16:00 27,3 C 44 % 1015,3 hPa 0,0 l/m 2,7 km/h NW 13,9 C 27,3 C 7,6 km/h
09.08.2010 17:00 26,9 C 44 % 1015,3 hPa 0,0 l/m 2,8 km/h NW 13,6 C 26,9 C 8,9 km/h
09.08.2010 18:00 25,6 C 48 % 1015,3 hPa 0,0 l/m 0,8 km/h N 13,9 C 25,6 C 4,0 km/h
09.08.2010 19:00 23,8 C 58 % 1015,4 hPa 0,0 l/m 0,0 km/h N 15,0 C 23,8 C 1,2 km/h
09.08.2010 20:00 22,1 C 65 % 1015,7 hPa 0,0 l/m 0,0 km/h N 15,1 C 22,1 C 0,8 km/h
09.08.2010 21:00 20,0 C 71 % 1016,3 hPa 0,0 l/m 0,0 km/h N 14,4 C 20,0 C 0,4 km/h
09.08.2010 22:00 18,4 C 74 % 1016,5 hPa 0,0 l/m 0,1 km/h N 13,8 C 18,4 C 3,2 km/h
09.08.2010 23:00 17,6 C 77 % 1016,5 hPa 0,0 l/m 0,2 km/h N 13,5 C 17,6 C 4,0 km/h
10.08.2010 00:00 17,2 C 79 % 1016,4 hPa 0,0 l/m 0,2 km/h N 13,5 C 17,2 C 5,2 km/h
10.08.2010 01:00 16,8 C 79 % 1016,2 hPa 0,0 l/m 0,3 km/h N 13,1 C 16,8 C 4,8 km/h
10.08.2010 02:00 16,4 C 79 % 1016,2 hPa 0,0 l/m 0,1 km/h N 12,8 C 16,4 C 2,0 km/h
10.08.2010 03:00 15,6 C 81 % 1016,3 hPa 0,0 l/m 0,1 km/h N 12,4 C 15,6 C 2,8 km/h
10.08.2010 04:00 15,0 C 83 % 1016,3 hPa 0,0 l/m 0,1 km/h N 12,2 C 15,0 C 3,6 km/h
10.08.2010 05:00 14,9 C 83 % 1016,5 hPa 0,0 l/m 0,1 km/h N 12,1 C 14,9 C 1,6 km/h
10.08.2010 06:00 14,8 C 84 % 1016,7 hPa 0,0 l/m 0,0 km/h N 12,1 C 14,8 C 0,8 km/h
10.08.2010 07:00 15,2 C 86 % 1017,2 hPa 0,0 l/m 0,0 km/h N 12,8 C 15,2 C 0,4 km/h
10.08.2010 08:00 16,4 C 86 % 1017,5 hPa 0,0 l/m 0,0 km/h N 14,0 C 16,4 C 0,4 km/h
10.08.2010 09:00 18,4 C 82 % 1017,6 hPa 0,0 l/m 0,5 km/h N 15,2 C 18,4 C 2,0 km/h
10.08.2010 10:00 20,6 C 71 % 1017,4 hPa 0,0 l/m 0,5 km/h N 15,2 C 20,6 C 3,2 km/h
10.08.2010 11:00 23,7 C 61 % 1017,1 hPa 0,0 l/m 0,3 km/h N 15,7 C 23,7 C 2,4 km/h
10.08.2010 12:00 25,9 C 52 % 1016,8 hPa 0,0 l/m 0,9 km/h O-NO 15,3 C 25,9 C 4,0 km/h
10.08.2010 13:00 25,3 C 54 % 1016,7 hPa 0,0 l/m 0,5 km/h N 15,4 C 25,3 C 3,6 km/h
10.08.2010 14:00 26,5 C 50 % 1016,4 hPa 0,0 l/m 1,3 km/h NO 15,1 C 26,5 C 6,8 km/h
10.08.2010 15:00 25,6 C 52 % 1016,2 hPa 0,0 l/m 1,3 km/h O-NO 15,1 C 25,6 C 4,4 km/h
10.08.2010 16:00 26,3 C 51 % 1015,8 hPa 0,0 l/m 0,7 km/h O-NO 15,4 C 26,3 C 3,2 km/h
10.08.2010 17:00 26,8 C 50 % 1015,4 hPa 0,0 l/m 0,8 km/h N 15,3 C 26,8 C 3,6 km/h
10.08.2010 18:00 25,8 C 53 % 1015,2 hPa 0,0 l/m 0,5 km/h N 15,5 C 25,8 C 4,0 km/h
10.08.2010 19:00 24,9 C 56 % 1015,3 hPa 0,0 l/m 0,2 km/h N 15,5 C 24,9 C 3,2 km/h
10.08.2010 20:00 23,7 C 60 % 1015,3 hPa 0,0 l/m 0,0 km/h N 15,5 C 23,7 C 1,2 km/h
10.08.2010 21:00 21,4 C 69 % 1015,8 hPa 0,0 l/m 0,0 km/h N 15,4 C 21,4 C 0,0 km/h
10.08.2010 22:00 19,5 C 75 % 1015,7 hPa 0,0 l/m 0,0 km/h N 14,9 C 19,5 C 0,0 km/h
10.08.2010 23:00 18,2 C 79 % 1015,4 hPa 0,0 l/m 0,0 km/h N 14,4 C 18,2 C 0,0 km/h
11.08.2010 00:00 17,4 C 81 % 1015,4 hPa 0,0 l/m 0,0 km/h N 14,1 C 17,4 C 0,0 km/h
11.08.2010 01:00 16,9 C 84 % 1015,3 hPa 0,0 l/m 0,0 km/h N 14,0 C 16,9 C 0,4 km/h
11.08.2010 02:00 16,4 C 85 % 1015,1 hPa 0,0 l/m 0,0 km/h N 13,8 C 16,4 C 0,8 km/h
11.08.2010 03:00 16,3 C 86 % 1015,1 hPa 0,0 l/m 0,0 km/h N 13,9 C 16,3 C 0,4 km/h
11.08.2010 04:00 15,8 C 86 % 1015,0 hPa 0,0 l/m 0,0 km/h N 13,5 C 15,8 C 0,0 km/h
11.08.2010 05:00 15,4 C 87 % 1015,1 hPa 0,0 l/m 0,0 km/h N 13,2 C 15,4 C 0,0 km/h
11.08.2010 06:00 15,2 C 87 % 1015,2 hPa 0,0 l/m 0,0 km/h N 13,1 C 15,2 C 0,0 km/h
11.08.2010 07:00 16,0 C 88 % 1015,3 hPa 0,0 l/m 0,0 km/h N 14,0 C 16,0 C 0,8 km/h
11.08.2010 08:00 17,5 C 88 % 1015,3 hPa 0,0 l/m 0,1 km/h N 15,5 C 17,5 C 1,6 km/h
11.08.2010 09:00 19,3 C 87 % 1015,3 hPa 0,0 l/m 0,1 km/h N 17,1 C 19,3 C 1,6 km/h
11.08.2010 10:00 21,2 C 81 % 1015,3 hPa 0,0 l/m 0,1 km/h N 17,8 C 21,2 C 1,2 km/h
11.08.2010 11:00 23,9 C 71 % 1015,2 hPa 0,0 l/m 0,5 km/h N 18,3 C 23,9 C 4,4 km/h
11.08.2010 12:00 26,1 C 65 % 1014,8 hPa 0,0 l/m 0,6 km/h N 18,9 C 26,1 C 2,8 km/h
11.08.2010 13:00 27,9 C 59 % 1014,5 hPa 0,0 l/m 0,7 km/h O-NO 19,0 C 27,9 C 4,4 km/h
11.08.2010 14:00 28,2 C 57 % 1014,1 hPa 0,0 l/m 1,1 km/h N-NO 18,8 C 28,2 C 4,0 km/h
11.08.2010 15:00 28,8 C 54 % 1013,7 hPa 0,0 l/m 0,6 km/h N 18,7 C 28,8 C 5,2 km/h
11.08.2010 16:00 27,6 C 62 % 1014,0 hPa 0,0 l/m 0,7 km/h S-SO 19,5 C 27,6 C 4,8 km/h
11.08.2010 17:00 24,5 C 73 % 1014,5 hPa 1,8 l/m 2,6 km/h S 19,3 C 24,5 C 9,7 km/h
11.08.2010 18:00 23,3 C 81 % 1014,3 hPa 0,0 l/m 1,0 km/h SW 19,9 C 23,3 C 5,6 km/h
11.08.2010 19:00 22,9 C 81 % 1014,3 hPa 0,0 l/m 1,1 km/h S 19,4 C 22,9 C 6,0 km/h
11.08.2010 20:00 22,0 C 80 % 1014,6 hPa 0,0 l/m 0,1 km/h N 18,3 C 22,0 C 1,6 km/h
11.08.2010 21:00 21,0 C 82 % 1014,9 hPa 0,0 l/m 0,3 km/h N 17,7 C 21,0 C 3,2 km/h
11.08.2010 22:00 19,8 C 83 % 1014,9 hPa 0,0 l/m 0,0 km/h N 16,7 C 19,8 C 1,2 km/h
11.08.2010 23:00 18,9 C 84 % 1014,8 hPa 0,0 l/m 0,0 km/h N 16,2 C 18,9 C 1,6 km/h
12.08.2010 00:00 18,1 C 86 % 1014,6 hPa 0,0 l/m 0,0 km/h N 15,7 C 18,1 C 0,8 km/h
12.08.2010 01:00 17,5 C 86 % 1014,3 hPa 0,0 l/m 0,0 km/h N 15,1 C 17,5 C 1,6 km/h
12.08.2010 02:00 16,7 C 86 % 1014,1 hPa 0,0 l/m 0,0 km/h N 14,4 C 16,7 C 0,4 km/h
12.08.2010 03:00 16,0 C 87 % 1013,8 hPa 0,0 l/m 0,0 km/h N 13,8 C 16,0 C 0,0 km/h
12.08.2010 04:00 15,4 C 87 % 1013,7 hPa 0,0 l/m 0,0 km/h N 13,2 C 15,4 C 0,0 km/h
12.08.2010 05:00 14,9 C 87 % 1013,5 hPa 0,0 l/m 0,0 km/h N 12,8 C 14,9 C 0,0 km/h
12.08.2010 06:00 14,8 C 88 % 1013,5 hPa 0,0 l/m 0,0 km/h N 12,8 C 14,8 C 0,0 km/h
12.08.2010 07:00 15,4 C 88 % 1013,4 hPa 0,0 l/m 0,0 km/h N 13,4 C 15,4 C 0,0 km/h
12.08.2010 08:00 17,3 C 88 % 1013,3 hPa 0,0 l/m 0,2 km/h N 15,2 C 17,3 C 2,8 km/h
12.08.2010 09:00 19,3 C 88 % 1013,0 hPa 0,0 l/m 0,7 km/h S 17,3 C 19,3 C 7,2 km/h
12.08.2010 10:00 22,8 C 75 % 1012,8 hPa 0,0 l/m 2,3 km/h W-SW 17,9 C 22,8 C 15,7 km/h
12.08.2010 11:00 27,2 C 55 % 1012,5 hPa 0,0 l/m 3,5 km/h O 17,2 C 27,2 C 19,3 km/h
12.08.2010 12:00 28,9 C 48 % 1012,3 hPa 0,0 l/m 4,8 km/h NO 16,6 C 28,9 C 17,3 km/h
12.08.2010 13:00 29,9 C 45 % 1012,0 hPa 0,0 l/m 4,2 km/h S 16,8 C 29,9 C 14,5 km/h
12.08.2010 14:00 29,0 C 49 % 1012,0 hPa 0,0 l/m 3,0 km/h O 17,0 C 29,0 C 12,9 km/h
12.08.2010 15:00 30,2 C 46 % 1011,7 hPa 0,0 l/m 2,4 km/h S-SO 17,2 C 30,2 C 11,3 km/h
12.08.2010 16:00 30,2 C 44 % 1011,5 hPa 0,0 l/m 2,5 km/h S-SO 16,5 C 30,2 C 12,5 km/h
12.08.2010 17:00 29,9 C 41 % 1011,2 hPa 0,0 l/m 2,6 km/h O-SO 15,3 C 29,9 C 13,3 km/h
12.08.2010 18:00 28,3 C 46 % 1011,1 hPa 0,0 l/m 1,5 km/h S-SO 15,5 C 28,3 C 9,3 km/h
12.08.2010 19:00 26,8 C 52 % 1011,1 hPa 0,0 l/m 0,8 km/h N 16,0 C 26,8 C 6,8 km/h
12.08.2010 20:00 25,4 C 58 % 1011,4 hPa 0,0 l/m 0,2 km/h N 16,6 C 25,4 C 4,0 km/h
12.08.2010 21:00 23,3 C 66 % 1011,8 hPa 0,0 l/m 0,1 km/h N 16,6 C 23,3 C 1,6 km/h
12.08.2010 22:00 21,7 C 72 % 1012,0 hPa 0,0 l/m 0,0 km/h N 16,4 C 21,7 C 1,2 km/h
12.08.2010 23:00 20,8 C 76 % 1012,4 hPa 0,0 l/m 0,0 km/h N 16,4 C 20,8 C 1,6 km/h
13.08.2010 00:00 20,4 C 78 % 1012,7 hPa 0,0 l/m 0,1 km/h N 16,4 C 20,4 C 2,0 km/h
13.08.2010 01:00 19,9 C 79 % 1013,1 hPa 0,0 l/m 0,6 km/h SW 16,1 C 19,9 C 6,4 km/h
13.08.2010 02:00 20,4 C 75 % 1013,2 hPa 0,0 l/m 1,0 km/h SW 15,7 C 20,4 C 6,4 km/h
13.08.2010 03:00 20,3 C 76 % 1013,8 hPa 0,0 l/m 1,5 km/h N-NW 15,8 C 20,3 C 6,8 km/h
13.08.2010 04:00 20,0 C 77 % 1013,8 hPa 0,0 l/m 1,1 km/h SW 15,7 C 20,0 C 7,2 km/h
13.08.2010 05:00 19,6 C 77 % 1013,8 hPa 0,0 l/m 0,7 km/h S-SW 15,5 C 19,6 C 6,8 km/h
13.08.2010 06:00 19,4 C 77 % 1014,0 hPa 0,0 l/m 1,1 km/h N 15,3 C 19,4 C 7,3 km/h
13.08.2010 07:00 19,7 C 78 % 1014,5 hPa 0,0 l/m 0,3 km/h N 15,8 C 19,7 C 3,6 km/h
13.08.2010 08:00 20,5 C 76 % 1014,5 hPa 0,0 l/m 0,5 km/h W-NW 16,1 C 20,5 C 3,2 km/h
13.08.2010 09:00 21,7 C 73 % 1014,6 hPa 0,0 l/m 2,5 km/h N-NW 16,6 C 21,7 C 8,0 km/h
13.08.2010 10:00 22,5 C 71 % 1014,8 hPa 0,0 l/m 1,4 km/h N-NO 16,9 C 22,5 C 6,0 km/h
13.08.2010 11:00 24,5 C 66 % 1015,2 hPa 0,0 l/m 0,4 km/h N 17,6 C 24,5 C 2,4 km/h
13.08.2010 12:00 26,4 C 60 % 1015,1 hPa 0,0 l/m 0,9 km/h SW 17,9 C 26,4 C 4,4 km/h
13.08.2010 13:00 24,7 C 68 % 1015,0 hPa 2,3 l/m 1,0 km/h N 18,4 C 24,7 C 4,3 km/h
13.08.2010 14:00 26,0 C 66 % 1014,1 hPa 0,0 l/m 0,4 km/h N 19,1 C 26,0 C 2,4 km/h
13.08.2010 15:00 26,5 C 57 % 1013,7 hPa 0,0 l/m 0,9 km/h SO 17,2 C 26,5 C 4,4 km/h
13.08.2010 16:00 28,3 C 57 % 1012,9 hPa 0,0 l/m 1,1 km/h SW 18,8 C 28,3 C 6,4 km/h
13.08.2010 17:00 28,9 C 57 % 1012,8 hPa 0,0 l/m 0,9 km/h S 19,3 C 28,9 C 5,6 km/h
13.08.2010 18:00 28,1 C 56 % 1012,7 hPa 0,0 l/m 1,2 km/h S-SO 18,3 C 28,1 C 7,2 km/h
13.08.2010 19:00 27,0 C 63 % 1012,8 hPa 0,0 l/m 0,1 km/h N 19,2 C 27,0 C 1,6 km/h
13.08.2010 20:00 25,1 C 69 % 1012,4 hPa 0,0 l/m 0,1 km/h N 19,0 C 25,1 C 0,4 km/h
13.08.2010 21:00 23,8 C 75 % 1012,4 hPa 6,8 l/m 1,4 km/h NO 19,1 C 23,8 C 6,0 km/h
13.08.2010 22:00 19,8 C 84 % 1015,2 hPa 22,9 l/m 3,8 km/h O-NO 17,0 C 19,7 C 17,3 km/h
13.08.2010 23:00 18,9 C 87 % 1013,9 hPa 4,4 l/m 0,0 km/h N 16,6 C 18,9 C 0,4 km/h
14.08.2010 00:00 18,8 C 87 % 1013,3 hPa 0,8 l/m 0,0 km/h N 16,5 C 18,8 C 0,8 km/h
14.08.2010 01:00 18,5 C 88 % 1012,3 hPa 0,0 l/m 0,0 km/h N 16,4 C 18,5 C 0,0 km/h
14.08.2010 02:00 18,4 C 88 % 1012,6 hPa 0,0 l/m 0,0 km/h N 16,4 C 18,4 C 1,6 km/h
14.08.2010 03:00 18,4 C 88 % 1013,1 hPa 0,0 l/m 0,0 km/h N 16,3 C 18,4 C 0,8 km/h
14.08.2010 04:00 17,8 C 88 % 1014,2 hPa 0,0 l/m 0,0 km/h N 15,8 C 17,8 C 0,4 km/h
14.08.2010 05:00 18,0 C 88 % 1014,8 hPa 0,0 l/m 0,0 km/h N 16,0 C 18,0 C 0,4 km/h
14.08.2010 06:00 18,2 C 88 % 1014,9 hPa 0,0 l/m 0,0 km/h N 16,2 C 18,2 C 0,4 km/h
14.08.2010 07:00 18,4 C 88 % 1015,0 hPa 0,0 l/m 0,0 km/h N 16,4 C 18,4 C 0,0 km/h
14.08.2010 08:00 18,7 C 88 % 1015,4 hPa 0,0 l/m 0,3 km/h N 16,7 C 18,7 C 2,8 km/h
14.08.2010 09:00 19,0 C 88 % 1015,9 hPa 0,0 l/m 0,4 km/h N 17,0 C 19,0 C 2,8 km/h
14.08.2010 10:00 19,6 C 88 % 1016,0 hPa 0,0 l/m 0,0 km/h N 17,6 C 19,6 C 0,8 km/h
14.08.2010 11:00 21,5 C 83 % 1016,1 hPa 0,0 l/m 0,6 km/h SO 18,4 C 21,5 C 3,2 km/h
14.08.2010 12:00 22,5 C 77 % 1016,5 hPa 0,0 l/m 0,4 km/h SO 18,2 C 22,5 C 2,0 km/h
14.08.2010 13:00 23,3 C 73 % 1016,1 hPa 0,0 l/m 1,2 km/h O-NO 18,2 C 23,3 C 4,8 km/h
14.08.2010 14:00 24,2 C 71 % 1015,8 hPa 0,0 l/m 1,0 km/h O-NO 18,7 C 24,2 C 4,0 km/h
14.08.2010 15:00 25,3 C 69 % 1015,2 hPa 0,0 l/m 0,8 km/h S 19,0 C 25,3 C 4,8 km/h
14.08.2010 16:00 25,3 C 68 % 1014,7 hPa 0,0 l/m 0,7 km/h SO 19,0 C 25,3 C 3,2 km/h
14.08.2010 17:00 25,1 C 71 % 1014,4 hPa 0,0 l/m 0,7 km/h O 19,3 C 25,1 C 4,8 km/h
14.08.2010 18:00 25,0 C 68 % 1014,2 hPa 0,0 l/m 0,7 km/h O 18,7 C 25,0 C 3,2 km/h
14.08.2010 19:00 24,6 C 69 % 1014,0 hPa 0,0 l/m 0,2 km/h N 18,6 C 24,6 C 2,0 km/h
14.08.2010 20:00 23,9 C 73 % 1014,0 hPa 0,0 l/m 0,0 km/h N 18,7 C 23,9 C 2,4 km/h
14.08.2010 21:00 23,3 C 77 % 1013,9 hPa 0,0 l/m 0,0 km/h N 19,0 C 23,3 C 0,8 km/h
14.08.2010 22:00 22,7 C 81 % 1013,9 hPa 0,3 l/m 0,1 km/h N 19,3 C 22,7 C 2,8 km/h
14.08.2010 23:00 22,4 C 83 % 1014,3 hPa 2,1 l/m 1,5 km/h S-SW 19,4 C 22,4 C 7,2 km/h
15.08.2010 00:00 21,7 C 86 % 1013,0 hPa 0,5 l/m 0,0 km/h N 19,2 C 21,7 C 0,8 km/h
15.08.2010 01:00 21,1 C 87 % 1012,9 hPa 0,0 l/m 0,4 km/h SW 18,9 C 21,1 C 3,6 km/h
15.08.2010 02:00 20,8 C 87 % 1012,8 hPa 7,3 l/m 1,0 km/h S 18,6 C 20,8 C 8,1 km/h
15.08.2010 03:00 19,6 C 87 % 1012,3 hPa 0,3 l/m 0,2 km/h N 17,4 C 19,6 C 4,0 km/h
15.08.2010 04:00 19,2 C 88 % 1012,0 hPa 0,0 l/m 0,0 km/h N 17,2 C 19,2 C 0,8 km/h
15.08.2010 05:00 19,1 C 88 % 1011,8 hPa 0,0 l/m 0,2 km/h N 17,1 C 19,1 C 2,4 km/h
15.08.2010 06:00 19,4 C 88 % 1011,9 hPa 0,0 l/m 0,0 km/h N 17,4 C 19,4 C 0,0 km/h
15.08.2010 07:00 19,9 C 87 % 1011,8 hPa 0,0 l/m 0,0 km/h N 17,7 C 19,9 C 0,0 km/h
15.08.2010 08:00 21,0 C 87 % 1011,9 hPa 0,0 l/m 0,9 km/h S-SW 18,8 C 21,0 C 5,6 km/h
15.08.2010 09:00 21,9 C 88 % 1012,1 hPa 0,0 l/m 2,8 km/h S-SO 19,7 C 21,9 C 14,9 km/h
15.08.2010 10:00 22,5 C 75 % 1010,8 hPa 0,0 l/m 2,0 km/h SW 17,8 C 22,5 C 9,7 km/h
15.08.2010 11:00 24,3 C 64 % 1011,0 hPa 0,0 l/m 2,8 km/h S-SO 17,1 C 24,3 C 14,9 km/h
15.08.2010 12:00 25,5 C 64 % 1011,2 hPa 0,0 l/m 2,1 km/h O 18,2 C 25,5 C 9,3 km/h
15.08.2010 13:00 26,1 C 60 % 1011,2 hPa 0,0 l/m 2,4 km/h NO 17,8 C 26,1 C 11,7 km/h
15.08.2010 14:00 27,1 C 57 % 1011,3 hPa 0,0 l/m 2,3 km/h SO 17,9 C 27,1 C 12,9 km/h
15.08.2010 15:00 27,5 C 55 % 1010,9 hPa 0,0 l/m 4,7 km/h W-SW 17,5 C 27,5 C 16,9 km/h
15.08.2010 16:00 26,6 C 61 % 1010,3 hPa 0,0 l/m 4,2 km/h S 18,3 C 26,6 C 20,9 km/h
15.08.2010 17:00 27,9 C 59 % 1010,0 hPa 0,0 l/m 2,5 km/h NO 19,2 C 27,9 C 14,5 km/h
15.08.2010 18:00 27,1 C 59 % 1009,5 hPa 0,0 l/m 3,4 km/h S-SW 18,4 C 27,1 C 14,9 km/h
15.08.2010 19:00 25,9 C 65 % 1009,4 hPa 0,0 l/m 2,0 km/h S 18,7 C 25,9 C 13,3 km/h
15.08.2010 20:00 24,7 C 69 % 1009,8 hPa 0,0 l/m 1,1 km/h S 18,5 C 24,7 C 6,0 km/h
15.08.2010 21:00 23,3 C 75 % 1010,7 hPa 0,0 l/m 0,5 km/h SW 18,5 C 23,3 C 4,8 km/h
15.08.2010 22:00 22,3 C 78 % 1011,2 hPa 0,0 l/m 0,3 km/h N 18,2 C 22,3 C 4,4 km/h
15.08.2010 23:00 21,3 C 79 % 1011,3 hPa 0,0 l/m 1,8 km/h S-SW 17,5 C 21,3 C 8,0 km/h
Min-Datum _ 10.08.10 12.08.10 15.08.10 - 09.08.10 - 10.08.10 10.08.10 09.08.10
_ Min-Zeit 06:15 17:15 19:30 - 00:00 - 06:00 06:30 01:45
Minimum _ 14,7 C 40 % 1009,3 hPa - 0,0 km/h - 11,9 C 14,7 C 0,0 km/h
Max-Datum _ 12.08.10 11.08.10 09.08.10 13.08.10 13.08.10 - 15.08.10 12.08.10 13.08.10
_ Max-Zeit 16:00 06:45 08:30 22:15 22:00 - 09:30 15:45 22:00
Maximum _ 30,7 C 88 % 1018,1 hPa 22,9 l/m 8,1 km/h
O-NO
- 20,2 C 30,6 C 37,0 km/h
N
Durchschnitt _ 21,8 C 73 % 1014,3 hPa #52,0 l/m 0,9 km/h SW 16,3 C 21,8 C 4,9 km/h